Time,TemperatureF,DewpointF,PressureIn,WindDirection,WindDirectionDegrees,WindSpeedMPH,WindSpeedGustMPH,Humidity,HourlyPrecipIn,Conditions,Clouds,dailyrainin,SoftwareType,DateUTC
2013-09-13 00:01:00,66.7,66.2,29.70,West,275,0.0,0.9,98,0.01,,,2.52,meteobridge,2013-09-13 04:01:00,
2013-09-13 00:02:00,66.7,66.2,29.70,West,275,0.0,0.9,98,0.01,,,2.52,meteobridge,2013-09-13 04:02:00,
2013-09-13 00:04:00,66.7,66.2,29.70,West,275,0.0,0.0,98,0.01,,,2.52,meteobridge,2013-09-13 04:04:00,
2013-09-13 00:06:00,66.9,66.4,29.70,West,275,0.0,0.0,98,0.01,,,2.52,meteobridge,2013-09-13 04:06:00,
2013-09-13 00:08:00,66.9,66.4,29.70,West,275,0.0,0.0,98,0.01,,,2.52,meteobridge,2013-09-13 04:08:00,
2013-09-13 00:10:00,66.9,66.4,29.70,West,275,0.0,0.0,98,0.01,,,2.52,meteobridge,2013-09-13 04:10:00,
2013-09-13 00:15:00,66.9,66.6,29.70,West,275,0.9,0.9,99,0.01,,,2.52,meteobridge,2013-09-13 04:15:00,
2013-09-13 00:20:00,66.9,66.4,29.70,West,275,0.0,0.9,98,0.01,,,2.52,meteobridge,2013-09-13 04:20:00,
2013-09-13 00:26:00,66.9,66.4,29.70,West,275,0.0,0.0,98,0.01,,,2.52,meteobridge,2013-09-13 04:26:00,
2013-09-13 00:31:00,66.9,66.4,29.70,West,275,0.0,0.9,98,0.00,,,2.52,meteobridge,2013-09-13 04:31:00,
2013-09-13 00:36:00,67.1,66.6,29.69,West,262,0.0,2.0,98,0.00,,,2.52,meteobridge,2013-09-13 04:36:00,
2013-09-13 00:42:00,67.1,66.6,29.69,WNW,290,0.0,0.9,98,0.00,,,2.52,meteobridge,2013-09-13 04:42:00,
2013-09-13 00:47:00,67.1,66.6,29.69,WNW,290,0.0,0.0,98,0.00,,,2.52,meteobridge,2013-09-13 04:47:00,
2013-09-13 00:52:00,67.3,66.9,29.68,WNW,290,0.0,0.0,99,0.00,,,2.52,meteobridge,2013-09-13 04:52:00,
2013-09-13 00:57:00,67.3,66.9,29.68,WNW,290,0.0,0.0,99,0.00,,,2.52,meteobridge,2013-09-13 04:57:00,
2013-09-13 01:03:00,67.3,66.9,29.68,WNW,290,0.0,0.9,99,0.00,,,2.52,meteobridge,2013-09-13 05:03:00,
2013-09-13 01:08:00,67.3,66.9,29.67,WNW,290,0.0,0.0,99,0.00,,,2.52,meteobridge,2013-09-13 05:08:00,
2013-09-13 01:13:00,67.3,66.9,29.67,WNW,290,0.0,0.0,99,0.00,,,2.52,meteobridge,2013-09-13 05:13:00,
2013-09-13 01:19:00,67.3,66.7,29.67,WNW,290,0.0,0.0,98,0.00,,,2.52,meteobridge,2013-09-13 05:19:00,
2013-09-13 01:24:00,67.3,66.7,29.67,WNW,290,0.0,0.0,98,0.00,,,2.52,meteobridge,2013-09-13 05:24:00,
2013-09-13 01:30:00,67.1,66.6,29.67,WNW,290,0.0,0.0,98,0.00,,,2.52,meteobridge,2013-09-13 05:30:00,
2013-09-13 01:35:00,67.1,66.6,29.67,WNW,290,0.0,0.0,98,0.00,,,2.52,meteobridge,2013-09-13 05:35:00,
2013-09-13 01:40:00,67.1,66.6,29.67,WNW,290,0.0,0.0,98,0.00,,,2.52,meteobridge,2013-09-13 05:40:00,
2013-09-13 01:45:00,66.9,66.4,29.66,WNW,290,0.0,0.0,98,0.00,,,2.52,meteobridge,2013-09-13 05:45:00,
2013-09-13 01:51:00,67.1,66.6,29.66,WNW,290,0.0,0.0,98,0.01,,,2.53,meteobridge,2013-09-13 05:51:00,
2013-09-13 01:56:00,66.9,66.4,29.65,WNW,290,0.0,0.0,98,0.01,,,2.53,meteobridge,2013-09-13 05:56:00,
2013-09-13 02:01:00,67.1,66.6,29.65,WNW,290,0.0,0.0,98,0.01,,,2.53,meteobridge,2013-09-13 06:01:00,
2013-09-13 02:07:00,66.9,66.4,29.65,WNW,290,0.0,0.9,98,0.01,,,2.53,meteobridge,2013-09-13 06:07:00,
2013-09-13 02:12:00,66.9,66.4,29.65,WNW,290,0.0,0.9,98,0.01,,,2.53,meteobridge,2013-09-13 06:12:00,
2013-09-13 02:17:00,66.9,66.4,29.65,WNW,290,0.0,0.0,98,0.01,,,2.53,meteobridge,2013-09-13 06:17:00,
2013-09-13 02:22:00,66.9,66.4,29.65,WNW,290,0.0,0.0,98,0.01,,,2.53,meteobridge,2013-09-13 06:22:00,
2013-09-13 02:27:00,66.9,66.6,29.64,WNW,290,0.0,0.0,99,0.01,,,2.53,meteobridge,2013-09-13 06:27:00,
2013-09-13 02:32:00,66.7,66.4,29.64,WNW,290,0.0,0.9,99,0.01,,,2.53,meteobridge,2013-09-13 06:32:00,
2013-09-13 02:37:00,66.9,66.6,29.64,West,275,0.9,4.0,99,0.01,,,2.53,meteobridge,2013-09-13 06:37:00,
2013-09-13 02:43:00,66.9,66.6,29.63,WNW,284,0.0,0.9,99,0.01,,,2.53,meteobridge,2013-09-13 06:43:00,
2013-09-13 02:48:00,66.7,66.4,29.63,NW,304,0.0,2.0,99,0.01,,,2.53,meteobridge,2013-09-13 06:48:00,
2013-09-13 02:53:00,66.7,66.4,29.63,WNW,296,0.0,0.9,99,0.00,,,2.53,meteobridge,2013-09-13 06:53:00,
2013-09-13 02:58:00,66.7,66.4,29.63,West,261,0.0,0.0,99,0.00,,,2.53,meteobridge,2013-09-13 06:58:00,
2013-09-13 03:04:00,66.7,66.4,29.63,WSW,256,0.0,2.0,99,0.00,,,2.53,meteobridge,2013-09-13 07:04:00,
2013-09-13 03:09:00,66.7,66.4,29.63,WSW,256,0.9,0.9,99,0.00,,,2.53,meteobridge,2013-09-13 07:09:00,
2013-09-13 03:14:00,66.7,66.4,29.63,WSW,246,0.0,0.9,99,0.00,,,2.53,meteobridge,2013-09-13 07:14:00,
2013-09-13 03:20:00,66.7,66.4,29.63,West,265,0.0,2.9,99,0.00,,,2.53,meteobridge,2013-09-13 07:20:00,
2013-09-13 03:25:00,66.7,66.4,29.63,West,269,0.9,0.9,99,0.00,,,2.53,meteobridge,2013-09-13 07:25:00,
2013-09-13 03:30:00,66.7,66.4,29.63,WNW,302,2.0,4.0,99,0.00,,,2.53,meteobridge,2013-09-13 07:30:00,
2013-09-13 03:35:00,66.7,66.4,29.63,WNW,290,0.0,0.0,99,0.00,,,2.53,meteobridge,2013-09-13 07:35:00,
2013-09-13 03:41:00,66.7,66.4,29.63,WNW,290,0.0,0.0,99,0.00,,,2.53,meteobridge,2013-09-13 07:41:00,
2013-09-13 03:46:00,66.7,66.4,29.63,WNW,290,0.0,0.0,99,0.00,,,2.53,meteobridge,2013-09-13 07:46:00,
2013-09-13 03:51:00,66.7,66.4,29.62,WNW,290,0.0,0.0,99,0.00,,,2.53,meteobridge,2013-09-13 07:51:00,
2013-09-13 03:56:00,66.6,66.2,29.62,WNW,290,0.0,0.0,99,0.00,,,2.53,meteobridge,2013-09-13 07:56:00,
2013-09-13 04:01:00,66.6,66.2,29.62,WNW,290,0.0,0.0,99,0.00,,,2.53,meteobridge,2013-09-13 08:01:00,
2013-09-13 04:07:00,66.6,66.2,29.62,WNW,290,0.0,0.0,99,0.00,,,2.53,meteobridge,2013-09-13 08:07:00,
2013-09-13 04:12:00,66.6,66.2,29.64,WNW,290,0.0,0.0,99,0.00,,,2.53,meteobridge,2013-09-13 08:12:00,
2013-09-13 04:17:00,66.7,66.4,29.64,WNW,290,0.0,0.9,99,0.00,,,2.53,meteobridge,2013-09-13 08:17:00,
2013-09-13 04:22:00,66.7,66.4,29.64,WNW,290,0.0,0.0,99,0.01,,,2.54,meteobridge,2013-09-13 08:22:00,
2013-09-13 04:27:00,66.7,66.4,29.65,WNW,290,0.0,0.9,99,0.03,,,2.56,meteobridge,2013-09-13 08:27:00,
2013-09-13 04:33:00,66.7,66.4,29.64,WNW,290,0.0,0.0,99,0.08,,,2.61,meteobridge,2013-09-13 08:33:00,
2013-09-13 04:38:00,66.7,66.4,29.64,WNW,290,0.0,0.0,99,0.15,,,2.68,meteobridge,2013-09-13 08:38:00,
2013-09-13 04:43:00,66.6,66.2,29.64,WNW,290,0.0,0.9,99,0.19,,,2.72,meteobridge,2013-09-13 08:43:00,
2013-09-13 04:48:00,66.6,66.2,29.64,WNW,290,0.0,0.0,99,0.22,,,2.75,meteobridge,2013-09-13 08:48:00,
2013-09-13 04:53:00,66.6,66.2,29.64,WNW,290,0.0,0.0,99,0.26,,,2.79,meteobridge,2013-09-13 08:53:00,
2013-09-13 04:58:00,66.6,66.2,29.64,WNW,290,0.0,0.0,99,0.29,,,2.82,meteobridge,2013-09-13 08:58:00,
2013-09-13 05:04:00,66.6,66.2,29.64,WNW,290,0.0,0.0,99,0.33,,,2.86,meteobridge,2013-09-13 09:04:00,
2013-09-13 05:09:00,66.6,66.2,29.64,WNW,290,0.0,0.0,99,0.38,,,2.91,meteobridge,2013-09-13 09:09:00,
2013-09-13 05:14:00,66.6,66.2,29.64,WNW,290,0.0,0.0,99,0.42,,,2.95,meteobridge,2013-09-13 09:14:00,
2013-09-13 05:19:00,66.4,66.0,29.63,WNW,290,0.0,0.0,99,0.44,,,2.97,meteobridge,2013-09-13 09:19:00,
2013-09-13 05:24:00,66.4,66.0,29.63,WNW,290,0.0,0.0,99,0.44,,,2.98,meteobridge,2013-09-13 09:24:00,
2013-09-13 05:30:00,66.4,66.0,29.63,WNW,290,0.0,0.0,99,0.41,,,2.99,meteobridge,2013-09-13 09:30:00,
2013-09-13 05:35:00,66.4,66.0,29.63,WNW,290,0.0,0.0,99,0.35,,,3.00,meteobridge,2013-09-13 09:35:00,
2013-09-13 05:40:00,66.2,65.8,29.63,WNW,290,0.0,0.0,99,0.29,,,3.00,meteobridge,2013-09-13 09:40:00,
2013-09-13 05:45:00,66.0,65.7,29.63,WNW,290,0.0,0.0,99,0.27,,,3.01,meteobridge,2013-09-13 09:45:00,
2013-09-13 05:51:00,66.0,65.7,29.63,WNW,290,0.0,0.0,99,0.24,,,3.01,meteobridge,2013-09-13 09:51:00,
2013-09-13 05:57:00,65.8,65.3,29.64,WNW,290,0.0,0.0,98,0.20,,,3.01,meteobridge,2013-09-13 09:57:00,
2013-09-13 06:02:00,65.8,65.3,29.64,WNW,290,0.0,0.0,98,0.17,,,3.02,meteobridge,2013-09-13 10:02:00,
2013-09-13 06:08:00,65.7,65.1,29.64,WNW,290,0.0,0.9,98,0.12,,,3.02,meteobridge,2013-09-13 10:08:00,
2013-09-13 06:13:00,65.7,65.1,29.64,WNW,290,0.0,0.9,98,0.07,,,3.02,meteobridge,2013-09-13 10:13:00,
2013-09-13 06:19:00,65.5,64.9,29.64,WNW,290,0.9,0.9,98,0.05,,,3.02,meteobridge,2013-09-13 10:19:00,
2013-09-13 06:24:00,65.7,65.3,29.65,WNW,284,0.0,0.0,99,0.05,,,3.03,meteobridge,2013-09-13 10:24:00,
2013-09-13 06:29:00,65.7,65.3,29.65,WNW,284,0.0,0.9,99,0.04,,,3.03,meteobridge,2013-09-13 10:29:00,
2013-09-13 06:34:00,65.7,65.3,29.65,WNW,284,0.0,2.0,99,0.03,,,3.03,meteobridge,2013-09-13 10:34:00,
2013-09-13 06:39:00,65.7,65.3,29.65,West,267,0.0,2.0,99,0.03,,,3.03,meteobridge,2013-09-13 10:39:00,
2013-09-13 06:45:00,65.7,65.3,29.65,West,267,0.0,0.9,99,0.02,,,3.03,meteobridge,2013-09-13 10:45:00,
2013-09-13 06:50:00,65.8,65.5,29.65,West,267,0.0,0.0,99,0.02,,,3.03,meteobridge,2013-09-13 10:50:00,
2013-09-13 06:55:00,65.8,65.5,29.65,West,267,0.0,2.0,99,0.02,,,3.03,meteobridge,2013-09-13 10:55:00,
2013-09-13 07:00:00,65.8,65.5,29.65,West,279,0.9,2.9,99,0.02,,,3.03,meteobridge,2013-09-13 11:00:00,
2013-09-13 07:05:00,65.8,65.5,29.65,West,264,0.0,0.9,99,0.01,,,3.03,meteobridge,2013-09-13 11:05:00,
2013-09-13 07:10:00,65.8,65.5,29.65,West,264,0.0,2.0,99,0.01,,,3.03,meteobridge,2013-09-13 11:10:00,
2013-09-13 07:16:00,65.7,65.3,29.65,West,260,0.0,2.0,99,0.01,,,3.03,meteobridge,2013-09-13 11:16:00,
2013-09-13 07:21:00,65.7,65.3,29.65,West,260,0.0,0.0,99,0.01,,,3.04,meteobridge,2013-09-13 11:21:00,
2013-09-13 07:27:00,65.7,65.3,29.65,WSW,258,0.0,0.9,99,0.01,,,3.04,meteobridge,2013-09-13 11:27:00,
2013-09-13 07:32:00,65.5,65.1,29.65,WSW,258,0.0,0.0,99,0.01,,,3.04,meteobridge,2013-09-13 11:32:00,
2013-09-13 07:37:00,65.5,65.1,29.65,WNW,300,0.0,2.0,99,0.01,,,3.04,meteobridge,2013-09-13 11:37:00,
2013-09-13 07:42:00,65.5,65.1,29.65,WNW,291,0.0,0.9,99,0.01,,,3.04,meteobridge,2013-09-13 11:42:00,
2013-09-13 07:47:00,65.5,65.1,29.65,West,274,0.0,0.0,99,0.01,,,3.04,meteobridge,2013-09-13 11:47:00,
2013-09-13 07:53:00,65.5,65.1,29.65,West,272,0.0,0.9,99,0.01,,,3.04,meteobridge,2013-09-13 11:53:00,
2013-09-13 07:58:00,65.7,65.3,29.65,WSW,252,0.0,0.9,99,0.01,,,3.04,meteobridge,2013-09-13 11:58:00,
2013-09-13 08:03:00,65.7,65.3,29.65,NW,304,0.0,2.0,99,0.01,,,3.04,meteobridge,2013-09-13 12:03:00,
2013-09-13 08:08:00,65.7,65.3,29.66,West,272,2.0,2.0,99,0.01,,,3.04,meteobridge,2013-09-13 12:08:00,
2013-09-13 08:13:00,65.7,65.3,29.66,West,261,0.0,2.0,99,0.01,,,3.04,meteobridge,2013-09-13 12:13:00,
2013-09-13 08:19:00,65.7,65.3,29.66,West,273,2.0,4.0,99,0.00,,,3.04,meteobridge,2013-09-13 12:19:00,
2013-09-13 08:24:00,65.7,65.1,29.65,WSW,255,2.0,2.0,98,0.00,,,3.04,meteobridge,2013-09-13 12:24:00,
2013-09-13 08:30:00,65.7,65.1,29.65,West,281,0.0,0.9,98,0.00,,,3.04,meteobridge,2013-09-13 12:30:00,
2013-09-13 08:35:00,65.8,65.3,29.65,West,269,0.0,4.0,98,0.00,,,3.04,meteobridge,2013-09-13 12:35:00,
2013-09-13 08:40:00,65.8,65.5,29.65,WSW,253,2.0,4.0,99,0.00,,,3.04,meteobridge,2013-09-13 12:40:00,
2013-09-13 08:45:00,66.2,65.8,29.66,West,265,2.9,4.0,99,0.00,,,3.04,meteobridge,2013-09-13 12:45:00,
2013-09-13 08:50:00,66.4,66.0,29.66,West,276,4.9,6.9,99,0.00,,,3.04,meteobridge,2013-09-13 12:50:00,
2013-09-13 08:56:00,66.4,65.8,29.66,NNW,333,0.0,2.0,98,0.00,,,3.04,meteobridge,2013-09-13 12:56:00,
2013-09-13 09:01:00,66.6,66.0,29.66,NW,313,0.9,2.0,98,0.00,,,3.04,meteobridge,2013-09-13 13:01:00,
2013-09-13 09:06:00,66.7,65.8,29.66,NW,324,0.9,2.0,97,0.00,,,3.04,meteobridge,2013-09-13 13:06:00,
2013-09-13 09:11:00,66.7,65.5,29.66,WNW,302,0.0,0.9,96,0.00,,,3.04,meteobridge,2013-09-13 13:11:00,
2013-09-13 09:17:00,66.7,65.3,29.65,NE,42,0.0,4.0,95,0.00,,,3.04,meteobridge,2013-09-13 13:17:00,
2013-09-13 09:22:00,66.9,65.5,29.65,WSW,254,0.0,2.0,95,0.00,,,3.04,meteobridge,2013-09-13 13:22:00,
2013-09-13 09:27:00,66.9,65.7,29.65,North,355,0.0,0.9,96,0.00,,,3.04,meteobridge,2013-09-13 13:27:00,
2013-09-13 09:32:00,66.9,65.1,29.65,NNW,344,0.9,2.0,94,0.00,,,3.04,meteobridge,2013-09-13 13:32:00,
2013-09-13 09:37:00,67.3,65.8,29.66,North,5,0.0,0.0,95,0.00,,,3.04,meteobridge,2013-09-13 13:37:00,
2013-09-13 09:43:00,67.5,66.0,29.66,NNW,338,0.9,2.0,95,0.00,,,3.04,meteobridge,2013-09-13 13:43:00,
2013-09-13 09:48:00,67.5,65.3,29.66,NNE,33,0.9,6.0,93,0.00,,,3.04,meteobridge,2013-09-13 13:48:00,
2013-09-13 09:53:00,67.6,65.5,29.65,North,355,0.0,2.0,93,0.00,,,3.04,meteobridge,2013-09-13 13:53:00,
2013-09-13 09:59:00,67.6,65.5,29.65,North,9,0.0,0.9,93,0.00,,,3.04,meteobridge,2013-09-13 13:59:00,
2013-09-13 10:04:00,67.6,64.9,29.65,North,355,4.0,4.0,91,0.00,,,3.04,meteobridge,2013-09-13 14:04:00,
2013-09-13 10:10:00,67.6,64.9,29.65,North,355,2.0,2.9,91,0.00,,,3.04,meteobridge,2013-09-13 14:10:00,
2013-09-13 10:15:00,67.6,65.3,29.64,North,9,0.9,0.9,92,0.00,,,3.04,meteobridge,2013-09-13 14:15:00,
2013-09-13 10:20:00,67.8,64.4,29.64,NNE,23,0.0,2.0,89,0.00,,,3.04,meteobridge,2013-09-13 14:20:00,
2013-09-13 10:25:00,67.8,65.5,29.64,NNE,23,0.0,0.0,92,0.00,,,3.04,meteobridge,2013-09-13 14:25:00,
2013-09-13 10:31:00,68.0,64.9,29.64,NNW,343,2.9,4.0,90,0.00,,,3.04,meteobridge,2013-09-13 14:31:00,
2013-09-13 10:36:00,68.4,64.9,29.65,NE,56,0.0,2.0,89,0.00,,,3.04,meteobridge,2013-09-13 14:36:00,
2013-09-13 10:41:00,68.4,64.0,29.65,NNE,20,0.0,4.0,86,0.00,,,3.04,meteobridge,2013-09-13 14:41:00,
2013-09-13 10:46:00,68.5,64.6,29.65,NE,53,2.0,4.0,87,0.00,,,3.04,meteobridge,2013-09-13 14:46:00,
2013-09-13 10:51:00,68.7,64.4,29.65,ESE,104,0.9,2.0,86,0.00,,,3.04,meteobridge,2013-09-13 14:51:00,
2013-09-13 10:57:00,69.1,64.4,29.65,North,11,0.0,0.9,85,0.00,,,3.04,meteobridge,2013-09-13 14:57:00,
2013-09-13 11:02:00,69.4,64.8,29.65,ENE,65,0.0,2.0,85,0.00,,,3.04,meteobridge,2013-09-13 15:02:00,
2013-09-13 11:07:00,70.0,64.9,29.65,NE,53,2.0,2.0,84,0.00,,,3.04,meteobridge,2013-09-13 15:07:00,
2013-09-13 11:12:00,70.2,65.8,29.65,NW,323,2.0,2.0,86,0.00,,,3.04,meteobridge,2013-09-13 15:12:00,
2013-09-13 11:17:00,70.0,64.9,29.66,NW,322,0.0,2.0,84,0.00,,,3.04,meteobridge,2013-09-13 15:17:00,
2013-09-13 11:22:00,69.6,64.2,29.66,NNE,26,0.9,2.9,83,0.00,,,3.04,meteobridge,2013-09-13 15:22:00,
2013-09-13 11:27:00,69.6,64.9,29.66,West,273,2.9,6.0,85,0.00,,,3.04,meteobridge,2013-09-13 15:27:00,
2013-09-13 11:33:00,69.8,65.5,29.66,NNW,329,0.0,2.0,86,0.00,,,3.04,meteobridge,2013-09-13 15:33:00,
2013-09-13 11:38:00,70.0,65.3,29.66,NW,315,0.0,2.9,85,0.00,,,3.04,meteobridge,2013-09-13 15:38:00,
2013-09-13 11:43:00,70.0,65.7,29.66,West,279,4.0,6.9,86,0.00,,,3.04,meteobridge,2013-09-13 15:43:00,
2013-09-13 11:49:00,70.0,64.9,29.66,NW,308,0.9,4.9,84,0.00,,,3.04,meteobridge,2013-09-13 15:49:00,
2013-09-13 11:54:00,69.6,64.6,29.66,NNW,330,0.9,6.9,84,0.00,,,3.04,meteobridge,2013-09-13 15:54:00,
2013-09-13 12:00:00,69.4,64.0,29.66,NE,49,0.9,2.0,83,0.00,,,3.04,meteobridge,2013-09-13 16:00:00,
2013-09-13 12:05:00,69.4,64.4,29.66,NE,34,0.9,0.9,84,0.00,,,3.04,meteobridge,2013-09-13 16:05:00,
2013-09-13 12:10:00,69.4,63.7,29.66,WSW,252,4.0,4.0,82,0.00,,,3.04,meteobridge,2013-09-13 16:10:00,
2013-09-13 12:16:00,69.4,64.0,29.66,NW,322,2.9,2.9,83,0.00,,,3.04,meteobridge,2013-09-13 16:16:00,
2013-09-13 12:21:00,69.4,63.3,29.66,NW,314,2.0,6.0,81,0.00,,,3.04,meteobridge,2013-09-13 16:21:00,
2013-09-13 12:26:00,69.4,62.6,29.66,West,269,0.9,6.0,79,0.00,,,3.04,meteobridge,2013-09-13 16:26:00,
2013-09-13 12:31:00,69.4,63.3,29.66,WNW,290,2.0,6.0,81,0.00,,,3.04,meteobridge,2013-09-13 16:31:00,
2013-09-13 12:37:00,69.4,63.0,29.65,NE,37,0.9,6.0,80,0.00,,,3.04,meteobridge,2013-09-13 16:37:00,
2013-09-13 12:42:00,69.3,62.4,29.66,NE,46,0.9,4.9,79,0.00,,,3.04,meteobridge,2013-09-13 16:42:00,
2013-09-13 12:48:00,69.3,62.8,29.65,NW,316,2.9,4.9,80,0.00,,,3.04,meteobridge,2013-09-13 16:48:00,
2013-09-13 12:53:00,69.4,63.0,29.65,WNW,301,0.9,2.9,80,0.00,,,3.04,meteobridge,2013-09-13 16:53:00,
2013-09-13 12:58:00,69.4,63.0,29.65,NNW,347,0.0,2.0,80,0.00,,,3.04,meteobridge,2013-09-13 16:58:00,
2013-09-13 13:03:00,69.6,63.5,29.65,WNW,300,0.0,6.0,81,0.00,,,3.04,meteobridge,2013-09-13 17:03:00,
2013-09-13 13:09:00,69.6,63.5,29.65,NW,309,2.9,4.9,81,0.00,,,3.04,meteobridge,2013-09-13 17:09:00,
2013-09-13 13:14:00,69.6,63.5,29.65,NNW,344,0.9,4.9,81,0.00,,,3.04,meteobridge,2013-09-13 17:14:00,
2013-09-13 13:19:00,69.6,63.9,29.65,WNW,283,2.0,4.0,82,0.00,,,3.04,meteobridge,2013-09-13 17:19:00,
2013-09-13 13:24:00,69.6,63.1,29.65,NW,306,0.9,4.0,80,0.00,,,3.04,meteobridge,2013-09-13 17:24:00,
2013-09-13 13:29:00,69.6,63.5,29.65,North,355,0.9,6.0,81,0.00,,,3.04,meteobridge,2013-09-13 17:29:00,
2013-09-13 13:35:00,69.6,63.5,29.65,WSW,250,2.0,2.9,81,0.00,,,3.04,meteobridge,2013-09-13 17:35:00,
2013-09-13 13:40:00,69.8,63.7,29.66,NNW,329,0.9,2.0,81,0.00,,,3.04,meteobridge,2013-09-13 17:40:00,
2013-09-13 13:45:00,69.8,63.3,29.65,West,264,2.9,2.9,80,0.00,,,3.04,meteobridge,2013-09-13 17:45:00,
2013-09-13 13:50:00,70.0,62.8,29.65,North,355,2.0,4.9,78,0.00,,,3.04,meteobridge,2013-09-13 17:50:00,
2013-09-13 13:55:00,70.2,63.3,29.65,NW,321,0.0,2.0,79,0.00,,,3.04,meteobridge,2013-09-13 17:55:00,
2013-09-13 14:00:00,70.3,62.8,29.65,NNE,30,0.0,4.9,77,0.00,,,3.04,meteobridge,2013-09-13 18:00:00,
2013-09-13 14:06:00,70.7,63.1,29.65,NNW,336,2.0,4.0,77,0.00,,,3.04,meteobridge,2013-09-13 18:06:00,
2013-09-13 14:11:00,71.1,63.9,29.65,NW,315,2.0,2.0,78,0.00,,,3.04,meteobridge,2013-09-13 18:11:00,
2013-09-13 14:16:00,71.2,63.0,29.65,West,267,2.0,4.9,75,0.00,,,3.04,meteobridge,2013-09-13 18:16:00,
2013-09-13 14:22:00,71.2,63.0,29.64,NNW,342,2.9,2.9,75,0.00,,,3.04,meteobridge,2013-09-13 18:22:00,
2013-09-13 14:27:00,71.6,61.7,29.64,North,355,2.9,4.9,71,0.00,,,3.04,meteobridge,2013-09-13 18:27:00,
2013-09-13 14:32:00,71.8,61.0,29.64,NNE,26,8.1,8.9,69,0.00,,,3.04,meteobridge,2013-09-13 18:32:00,
2013-09-13 14:38:00,71.8,61.0,29.64,West,275,4.0,8.9,69,0.00,,,3.04,meteobridge,2013-09-13 18:38:00,
2013-09-13 14:43:00,71.8,60.6,29.64,WNW,288,0.0,6.0,68,0.00,,,3.04,meteobridge,2013-09-13 18:43:00,
2013-09-13 14:48:00,72.0,61.2,29.64,NNE,20,0.0,6.9,69,0.00,,,3.04,meteobridge,2013-09-13 18:48:00,
2013-09-13 14:53:00,72.1,62.2,29.64,West,275,0.9,6.9,71,0.00,,,3.04,meteobridge,2013-09-13 18:53:00,
2013-09-13 14:59:00,72.5,62.6,29.65,West,259,2.0,6.9,71,0.00,,,3.04,meteobridge,2013-09-13 18:59:00,
2013-09-13 15:04:00,72.7,61.2,29.64,NNE,12,0.9,6.9,67,0.00,,,3.04,meteobridge,2013-09-13 19:04:00,
2013-09-13 15:09:00,72.9,61.7,29.64,NNW,338,2.0,4.9,68,0.00,,,3.04,meteobridge,2013-09-13 19:09:00,
2013-09-13 15:14:00,72.9,61.3,29.65,NE,35,4.0,6.0,67,0.00,,,3.04,meteobridge,2013-09-13 19:14:00,
2013-09-13 15:20:00,72.7,61.5,29.65,WNW,300,4.9,6.0,68,0.00,,,3.04,meteobridge,2013-09-13 19:20:00,
2013-09-13 15:25:00,72.1,60.6,29.65,NNW,336,4.9,8.9,67,0.00,,,3.04,meteobridge,2013-09-13 19:25:00,
2013-09-13 15:31:00,71.4,59.5,29.65,West,267,4.9,6.0,66,0.00,,,3.04,meteobridge,2013-09-13 19:31:00,
2013-09-13 15:36:00,71.1,59.2,29.65,WSW,250,0.0,8.9,66,0.00,,,3.04,meteobridge,2013-09-13 19:36:00,
2013-09-13 15:41:00,70.3,59.4,29.65,NNW,332,2.0,4.0,68,0.00,,,3.04,meteobridge,2013-09-13 19:41:00,
2013-09-13 15:47:00,70.0,59.7,29.66,WNW,299,0.0,6.0,70,0.00,,,3.04,meteobridge,2013-09-13 19:47:00,
2013-09-13 15:52:00,69.4,60.8,29.65,NNW,336,2.0,6.0,74,0.00,,,3.04,meteobridge,2013-09-13 19:52:00,
2013-09-13 15:57:00,68.5,61.7,29.66,NNE,16,0.9,4.9,79,0.01,,,3.05,meteobridge,2013-09-13 19:57:00,
2013-09-13 16:03:00,67.6,61.2,29.67,NE,38,4.0,12.1,80,0.01,,,3.05,meteobridge,2013-09-13 20:03:00,
2013-09-13 16:08:00,66.9,61.0,29.67,North,0,6.0,10.1,81,0.01,,,3.05,meteobridge,2013-09-13 20:08:00,
2013-09-13 16:13:00,66.4,60.4,29.68,North,355,0.9,13.0,81,0.02,,,3.06,meteobridge,2013-09-13 20:13:00,
2013-09-13 16:19:00,66.0,60.6,29.68,NE,40,2.9,2.9,83,0.02,,,3.06,meteobridge,2013-09-13 20:19:00,
2013-09-13 16:24:00,65.8,60.6,29.68,NE,40,2.9,6.0,83,0.03,,,3.07,meteobridge,2013-09-13 20:24:00,
2013-09-13 16:30:00,65.7,60.1,29.68,NNW,343,2.0,6.0,82,0.03,,,3.07,meteobridge,2013-09-13 20:30:00,
2013-09-13 16:35:00,65.7,60.6,29.68,NW,319,0.9,4.9,84,0.04,,,3.08,meteobridge,2013-09-13 20:35:00,
2013-09-13 16:40:00,65.8,60.8,29.68,WNW,288,2.0,2.9,84,0.04,,,3.08,meteobridge,2013-09-13 20:40:00,
2013-09-13 16:46:00,65.8,60.6,29.68,NW,319,0.9,6.0,83,0.04,,,3.08,meteobridge,2013-09-13 20:46:00,
2013-09-13 16:51:00,65.8,60.6,29.68,NE,34,0.0,4.9,83,0.04,,,3.08,meteobridge,2013-09-13 20:51:00,
2013-09-13 16:57:00,65.8,59.9,29.69,NE,52,6.0,11.0,81,0.03,,,3.08,meteobridge,2013-09-13 20:57:00,
2013-09-13 17:02:00,65.7,59.7,29.69,NE,44,6.0,8.9,81,0.03,,,3.08,meteobridge,2013-09-13 21:02:00,
2013-09-13 17:07:00,65.7,59.0,29.69,West,281,2.9,8.1,79,0.03,,,3.08,meteobridge,2013-09-13 21:07:00,
2013-09-13 17:13:00,65.7,59.4,29.69,NE,49,6.0,13.0,80,0.02,,,3.08,meteobridge,2013-09-13 21:13:00,
2013-09-13 17:18:00,65.8,59.5,29.70,NNW,338,4.0,10.1,80,0.02,,,3.08,meteobridge,2013-09-13 21:18:00,
2013-09-13 17:24:00,66.0,59.0,29.70,North,5,4.0,12.1,78,0.01,,,3.08,meteobridge,2013-09-13 21:24:00,
2013-09-13 17:29:00,66.0,59.4,29.70,NNW,333,2.0,2.9,79,0.01,,,3.08,meteobridge,2013-09-13 21:29:00,
2013-09-13 17:34:00,66.0,57.9,29.70,NE,42,4.0,6.9,75,0.00,,,3.08,meteobridge,2013-09-13 21:34:00,
2013-09-13 17:40:00,65.8,57.7,29.71,NNW,342,2.0,6.9,75,0.00,,,3.08,meteobridge,2013-09-13 21:40:00,
2013-09-13 17:45:00,65.8,58.5,29.71,West,270,2.9,2.9,77,0.00,,,3.08,meteobridge,2013-09-13 21:45:00,
2013-09-13 17:50:00,65.8,58.8,29.71,North,355,0.0,2.0,78,0.00,,,3.08,meteobridge,2013-09-13 21:50:00,
2013-09-13 17:56:00,65.8,58.5,29.72,WNW,284,4.0,4.9,77,0.00,,,3.08,meteobridge,2013-09-13 21:56:00,
2013-09-13 18:01:00,65.8,58.1,29.72,NE,35,0.0,8.1,76,0.00,,,3.08,meteobridge,2013-09-13 22:01:00,
2013-09-13 18:06:00,65.8,58.5,29.72,NE,44,6.0,6.0,77,0.00,,,3.08,meteobridge,2013-09-13 22:06:00,
2013-09-13 18:12:00,65.7,57.9,29.72,NNE,32,2.9,8.1,76,0.00,,,3.08,meteobridge,2013-09-13 22:12:00,
2013-09-13 18:17:00,65.5,57.7,29.72,NNE,13,4.9,6.9,76,0.00,,,3.08,meteobridge,2013-09-13 22:17:00,
2013-09-13 18:22:00,65.1,57.4,29.72,NW,311,2.0,6.0,76,0.00,,,3.08,meteobridge,2013-09-13 22:22:00,
2013-09-13 18:28:00,64.9,56.8,29.72,NE,42,2.9,10.1,75,0.00,,,3.08,meteobridge,2013-09-13 22:28:00,
2013-09-13 18:33:00,64.8,57.0,29.73,NE,37,0.9,8.1,76,0.00,,,3.08,meteobridge,2013-09-13 22:33:00,
2013-09-13 18:38:00,64.6,56.8,29.73,NNE,19,0.9,2.0,76,0.00,,,3.08,meteobridge,2013-09-13 22:38:00,
2013-09-13 18:43:00,64.2,56.8,29.73,NNE,29,2.0,6.0,77,0.00,,,3.08,meteobridge,2013-09-13 22:43:00,
2013-09-13 18:48:00,64.0,57.0,29.73,WNW,299,0.9,4.9,78,0.00,,,3.08,meteobridge,2013-09-13 22:48:00,
2013-09-13 18:54:00,63.9,56.5,29.73,North,5,2.0,6.0,77,0.00,,,3.08,meteobridge,2013-09-13 22:54:00,
2013-09-13 18:59:00,63.5,56.1,29.74,West,275,0.9,6.9,77,0.00,,,3.08,meteobridge,2013-09-13 22:59:00,
2013-09-13 19:04:00,63.3,55.9,29.75,North,355,4.9,8.1,77,0.00,,,3.08,meteobridge,2013-09-13 23:04:00,
2013-09-13 19:09:00,63.1,55.4,29.75,NE,46,2.0,2.9,76,0.00,,,3.08,meteobridge,2013-09-13 23:09:00,
2013-09-13 19:15:00,63.0,54.9,29.75,NNW,346,0.9,6.0,75,0.00,,,3.08,meteobridge,2013-09-13 23:15:00,
2013-09-13 19:20:00,63.0,55.2,29.75,NNW,330,2.9,2.9,76,0.00,,,3.08,meteobridge,2013-09-13 23:20:00,
2013-09-13 19:26:00,62.8,55.0,29.76,West,260,4.0,4.0,76,0.00,,,3.08,meteobridge,2013-09-13 23:26:00,
2013-09-13 19:31:00,62.4,54.7,29.77,NNE,13,2.0,4.0,76,0.00,,,3.08,meteobridge,2013-09-13 23:31:00,
2013-09-13 19:36:00,62.2,54.5,29.77,NE,34,0.0,4.9,76,0.00,,,3.08,meteobridge,2013-09-13 23:36:00,
2013-09-13 19:42:00,62.2,55.6,29.78,NE,34,0.9,2.0,79,0.00,,,3.08,meteobridge,2013-09-13 23:42:00,
2013-09-13 19:47:00,62.1,55.0,29.78,NW,317,0.9,2.0,78,0.00,,,3.08,meteobridge,2013-09-13 23:47:00,
2013-09-13 19:52:00,61.9,54.9,29.78,NNE,19,0.0,2.9,78,0.00,,,3.08,meteobridge,2013-09-13 23:52:00,
2013-09-13 19:57:00,61.7,54.1,29.78,NNE,31,0.0,2.0,76,0.00,,,3.08,meteobridge,2013-09-13 23:57:00,
2013-09-13 20:02:00,61.5,54.7,29.78,NNE,27,0.0,0.9,78,0.00,,,0.00,meteobridge,2013-09-14 00:02:00,
2013-09-13 20:07:00,61.3,54.5,29.79,NNE,28,2.0,2.0,78,0.00,,,0.00,meteobridge,2013-09-14 00:07:00,
2013-09-13 20:12:00,61.2,54.3,29.79,WNW,288,0.0,2.0,78,0.00,,,0.00,meteobridge,2013-09-14 00:12:00,
2013-09-13 20:18:00,61.2,54.9,29.79,WNW,294,2.0,2.0,80,0.00,,,0.00,meteobridge,2013-09-14 00:18:00,
2013-09-13 20:23:00,60.8,54.3,29.80,North,0,0.9,0.9,79,0.00,,,0.00,meteobridge,2013-09-14 00:23:00,
2013-09-13 20:29:00,60.6,54.1,29.80,NNE,14,0.0,2.0,79,0.00,,,0.00,meteobridge,2013-09-14 00:29:00,
2013-09-13 20:34:00,60.4,54.3,29.80,NW,315,0.9,2.9,80,0.00,,,0.00,meteobridge,2013-09-14 00:34:00,
2013-09-13 20:39:00,60.3,53.8,29.79,North,0,0.0,4.9,79,0.00,,,0.00,meteobridge,2013-09-14 00:39:00,
2013-09-13 20:45:00,60.3,53.8,29.80,WSW,257,2.0,2.9,79,0.00,,,0.00,meteobridge,2013-09-14 00:45:00,
2013-09-13 20:50:00,60.1,54.0,29.80,North,355,0.0,2.0,80,0.00,,,0.00,meteobridge,2013-09-14 00:50:00,
2013-09-13 20:55:00,59.9,53.8,29.80,North,11,0.9,2.0,80,0.00,,,0.00,meteobridge,2013-09-14 00:55:00,
2013-09-13 21:01:00,59.7,54.0,29.80,North,355,0.9,2.0,81,0.00,,,0.00,meteobridge,2013-09-14 01:01:00,
2013-09-13 21:06:00,59.5,53.4,29.80,NNW,334,0.0,4.9,80,0.00,,,0.00,meteobridge,2013-09-14 01:06:00,
2013-09-13 21:11:00,59.5,53.8,29.80,NNW,344,0.0,2.0,81,0.00,,,0.00,meteobridge,2013-09-14 01:11:00,
2013-09-13 21:17:00,59.4,53.6,29.80,NNW,329,2.9,6.0,81,0.00,,,0.00,meteobridge,2013-09-14 01:17:00,
2013-09-13 21:22:00,59.2,53.4,29.81,NE,38,4.9,6.0,81,0.00,,,0.00,meteobridge,2013-09-14 01:22:00,
2013-09-13 21:27:00,59.0,53.2,29.81,WNW,302,0.0,2.0,81,0.00,,,0.00,meteobridge,2013-09-14 01:27:00,
2013-09-13 21:33:00,58.8,53.1,29.81,NNW,327,0.0,4.9,81,0.00,,,0.00,meteobridge,2013-09-14 01:33:00,
2013-09-13 21:38:00,58.8,52.7,29.81,NE,55,0.0,4.0,80,0.00,,,0.00,meteobridge,2013-09-14 01:38:00,
2013-09-13 21:44:00,58.6,52.5,29.81,NNE,16,0.9,6.9,80,0.00,,,0.00,meteobridge,2013-09-14 01:44:00,
2013-09-13 21:49:00,58.6,52.2,29.81,NNW,348,0.9,13.0,79,0.00,,,0.00,meteobridge,2013-09-14 01:49:00,
2013-09-13 21:54:00,58.5,52.0,29.82,SSW,193,0.0,2.0,79,0.00,,,0.00,meteobridge,2013-09-14 01:54:00,
2013-09-13 22:00:00,58.5,51.3,29.82,NNE,17,2.0,6.9,77,0.00,,,0.00,meteobridge,2013-09-14 02:00:00,
2013-09-13 22:05:00,58.5,50.9,29.82,NNE,26,4.0,8.9,76,0.00,,,0.00,meteobridge,2013-09-14 02:05:00,
2013-09-13 22:10:00,58.5,50.9,29.82,NE,47,4.9,6.9,76,0.00,,,0.00,meteobridge,2013-09-14 02:10:00,
2013-09-13 22:16:00,58.3,50.4,29.82,ENE,57,4.0,12.1,75,0.00,,,0.00,meteobridge,2013-09-14 02:16:00,
2013-09-13 22:21:00,58.3,50.4,29.83,East,92,2.0,2.9,75,0.00,,,0.00,meteobridge,2013-09-14 02:21:00,
2013-09-13 22:27:00,58.1,50.5,29.83,NNE,14,0.9,2.9,76,0.00,,,0.00,meteobridge,2013-09-14 02:27:00,
2013-09-13 22:32:00,57.9,50.4,29.83,NNW,336,2.0,2.9,76,0.00,,,0.00,meteobridge,2013-09-14 02:32:00,
2013-09-13 22:37:00,57.7,49.8,29.83,NE,50,2.9,4.0,75,0.00,,,0.00,meteobridge,2013-09-14 02:37:00,
2013-09-13 22:42:00,57.7,49.8,29.83,NW,316,0.0,6.0,75,0.00,,,0.00,meteobridge,2013-09-14 02:42:00,
2013-09-13 22:47:00,57.6,48.9,29.83,NE,42,6.0,11.0,73,0.00,,,0.00,meteobridge,2013-09-14 02:47:00,
2013-09-13 22:53:00,57.6,49.3,29.83,WNW,284,2.9,4.0,74,0.00,,,0.00,meteobridge,2013-09-14 02:53:00,
2013-09-13 22:58:00,57.4,49.5,29.83,NW,309,0.0,8.1,75,0.00,,,0.00,meteobridge,2013-09-14 02:58:00,
2013-09-13 23:03:00,57.2,48.9,29.83,NNE,32,2.0,4.0,74,0.00,,,0.00,meteobridge,2013-09-14 03:03:00,
2013-09-13 23:09:00,57.0,48.7,29.83,NNE,12,0.9,8.9,74,0.00,,,0.00,meteobridge,2013-09-14 03:09:00,
2013-09-13 23:14:00,57.0,48.7,29.83,NNE,20,2.9,6.0,74,0.00,,,0.00,meteobridge,2013-09-14 03:14:00,
2013-09-13 23:19:00,56.8,49.3,29.83,NNE,13,0.9,2.0,76,0.00,,,0.00,meteobridge,2013-09-14 03:19:00,
2013-09-13 23:25:00,56.8,49.3,29.83,NW,311,0.0,0.0,76,0.00,,,0.00,meteobridge,2013-09-14 03:25:00,
2013-09-13 23:30:00,56.7,49.1,29.83,NNE,20,0.9,4.0,76,0.00,,,0.00,meteobridge,2013-09-14 03:30:00,
2013-09-13 23:36:00,56.5,49.3,29.83,NNW,345,0.9,11.0,77,0.00,,,0.00,meteobridge,2013-09-14 03:36:00,
2013-09-13 23:41:00,56.3,49.8,29.83,WSW,248,0.0,2.9,79,0.00,,,0.00,meteobridge,2013-09-14 03:41:00,
2013-09-13 23:46:00,56.1,48.9,29.83,NNE,15,0.9,4.0,77,0.00,,,0.00,meteobridge,2013-09-14 03:46:00,
2013-09-13 23:51:00,56.1,48.9,29.83,NW,321,0.0,0.9,77,0.00,,,0.00,meteobridge,2013-09-14 03:51:00,
2013-09-13 23:57:00,55.9,48.6,29.84,North,9,0.0,8.1,76,0.00,,,0.00,meteobridge,2013-09-14 03:57:00,